Barrick Corner, Indiana
Current Conditions -  °F | °C
As of 7:53 PM on Sunday 21 Dec 2014 (Local Time) from KHUF Reporting Station
Clear Clear  
Wind Chill: 33°   Ceiling: Unl
Heat Index: 33°   Visibility: 10mi
Dew Point: 27°   Wind: 3mph
Humidity: 78%   Direction: 140°SE
Pressure: 30.11"   Gusts: NA
Location:  39.2653°N, 87.1094°W
Report Text: KHUF 220053Z 14003KT 10SM CLR 01/M03 A3011 RMK AO2 SLP204 T00061028
Loading
Personal Weather Stations






























Interactive Weather Map New forecast layout! Learn more

10-Day Weather Forecast

Advertisements
Track Severe Weather on mobile